weather.gov     
National Weather Service

Terminal Aerodrome Forecast
NWS Homepage
This page is being discontinued on March 12, 2014.
The same data is available at this site. Please update your bookmarks.
Thank you, and we apologize for the inconvenience.
Please send an email to SR-SRH.Webmaster@noaa.gov with any concerns.


Current Version
Previous Version:    01  02  03  04  05  06  07  08  09  10  11  12  13  14  15  16  17  18  19  20  21  22  23  24  25  26  27  28  29  30  
   31  32  33  34  35  36  37  38  39  40  41  42  43  44  45  46  47  48  49  50  51  52  53  54  55  56  57  
[Printable]
996
FTUS46 KPQR 011136
TAFONP
TAF
KONP 011136Z 0112/0212 00000KT 6SM BR VCSH SCT080
     FM011400 00000KT 3SM BR SCT005 SCT030
     FM011900 33008KT P6SM SCT030
     FM020300 02003KT P6SM BKN100
     FM020900 VRB03KT 4SM BR SCT009=


996
FTUS46 KPQR 011136
TAFONP
TAF
KONP 011136Z 0112/0212 00000KT 6SM BR VCSH SCT080
     FM011400 00000KT 3SM BR SCT005 SCT030
     FM011900 33008KT P6SM SCT030
     FM020300 02003KT P6SM BKN100
     FM020900 VRB03KT 4SM BR SCT009=




U.S. Dept. of Commerce
NOAA National Weather Service
1325 East West Highway
Silver Spring, MD 20910
E-mail: w-nws.webmaster@noaa.gov
Page last modified: May 16, 2007
NATIONAL WEATHER SERVICE: for Safety, for Work, for Fun - FOR LIFE